createdAt,value
2022-12-11T22:06:21.309Z,60
2022-12-11T22:07:20.199Z,81.07
2022-12-11T22:08:20.799Z,81.07
2022-12-11T22:09:21.624Z,81.13
2022-12-11T22:10:21.593Z,81.09
2022-12-11T22:11:21.995Z,81.06
2022-12-11T22:12:20.798Z,81.14
2022-12-11T22:13:22.174Z,81.18
2022-12-11T22:14:21.002Z,81.13
2022-12-11T22:15:21.638Z,81.08
2022-12-11T22:16:21.490Z,81.10
2022-12-11T22:17:21.177Z,81.10
2022-12-11T22:18:21.003Z,81.14
2022-12-11T22:19:20.923Z,81.09
2022-12-11T22:20:22.891Z,80.99
2022-12-11T22:21:22.310Z,80.98
2022-12-11T22:22:21.107Z,81
2022-12-11T22:23:20.984Z,81.01
2022-12-11T22:24:21.249Z,81.01
2022-12-11T22:25:21.989Z,81.02
2022-12-11T22:26:20.654Z,81.03
2022-12-11T22:27:25.883Z,80.96
2022-12-11T22:28:22.097Z,80.96
2022-12-11T22:29:21.864Z,80.98
2022-12-11T22:30:23.122Z,80.98
2022-12-11T22:31:21.190Z,80.95
2022-12-11T22:32:21.196Z,80.93
2022-12-11T22:33:21.094Z,80.92
2022-12-11T22:34:21.536Z,80.76
2022-12-11T22:35:33.473Z,80.82
2022-12-11T22:36:21.924Z,80.82
2022-12-11T22:37:26.880Z,80.87
2022-12-11T22:38:22.039Z,80.87
2022-12-11T22:39:22.035Z,80.86
2022-12-11T22:40:21.589Z,80.87
2022-12-11T22:41:30.733Z,80.77
2022-12-11T22:42:22.381Z,80.77
2022-12-11T22:43:21.786Z,80.83
2022-12-11T22:44:22.027Z,80.91
2022-12-11T22:45:22.069Z,80.86
2022-12-11T22:46:21.745Z,80.80
2022-12-11T22:47:21.970Z,80.76
2022-12-11T22:48:22.220Z,80.73
2022-12-11T22:49:21.410Z,80.76
2022-12-11T22:50:21.450Z,80.74
2022-12-11T22:51:20.997Z,80.76
2022-12-11T22:52:21.569Z,80.70
2022-12-11T22:53:21.800Z,80.71
2022-12-11T22:54:22.234Z,80.75
2022-12-11T22:55:22.578Z,80.77
2022-12-11T22:56:21.438Z,80.90
2022-12-11T22:57:22.285Z,81.03
2022-12-11T22:58:29.563Z,81.28
2022-12-11T22:59:22.342Z,81.28
2022-12-11T23:00:23.733Z,81.39
2022-12-11T23:01:22.717Z,81.40
2022-12-11T23:02:22.060Z,81.38
2022-12-11T23:03:40.403Z,81.54
2022-12-11T23:04:22.163Z,81.54
2022-12-11T23:05:22.203Z,81.58
2022-12-11T23:06:21.635Z,81.60
2022-12-11T23:07:21.801Z,81.70
2022-12-11T23:08:22.245Z,81.83
2022-12-11T23:09:21.678Z,81.89
2022-12-11T23:10:21.765Z,81.89
2022-12-11T23:11:21.695Z,81.99
2022-12-11T23:12:21.694Z,82.13
2022-12-11T23:13:21.389Z,82.21
2022-12-11T23:14:21.309Z,82.30
2022-12-11T23:15:21.764Z,82.41
2022-12-11T23:16:21.661Z,82.54
2022-12-11T23:17:22.236Z,82.60
2022-12-11T23:18:21.843Z,82.60
2022-12-11T23:19:25.504Z,82.68
2022-12-11T23:20:22.903Z,82.63
2022-12-11T23:21:22.490Z,82.60
2022-12-11T23:22:21.635Z,82.65
2022-12-11T23:23:21.902Z,82.68
2022-12-11T23:24:22.831Z,82.68
2022-12-11T23:25:22.648Z,82.59
2022-12-11T23:26:21.632Z,82.59
2022-12-11T23:27:21.465Z,82.77
2022-12-11T23:28:21.412Z,82.89
2022-12-11T23:29:21.346Z,82.82
2022-12-11T23:30:22.028Z,82.83
2022-12-11T23:31:20.990Z,82.87
2022-12-11T23:32:20.965Z,82.92
2022-12-11T23:33:21.511Z,82.98
2022-12-11T23:34:21.099Z,83.04
2022-12-11T23:35:21.868Z,83.06
2022-12-11T23:36:21.508Z,83.03
2022-12-11T23:37:21.507Z,83.00
2022-12-11T23:38:21.192Z,83.05
2022-12-11T23:39:20.797Z,83.17
2022-12-11T23:40:21.891Z,83.20
2022-12-11T23:41:21.699Z,83.17
2022-12-11T23:42:22.439Z,83.14
2022-12-11T23:43:21.420Z,83.18
2022-12-11T23:44:21.686Z,83.17
2022-12-11T23:45:22.556Z,83.28
2022-12-11T23:46:20.943Z,83.40
2022-12-11T23:47:21.447Z,83.46
2022-12-11T23:48:21.526Z,83.38
2022-12-11T23:49:21.615Z,83.27
2022-12-11T23:50:22.380Z,83.33
2022-12-11T23:52:22.353Z,83.48
2022-12-11T23:53:22.002Z,83.51
2022-12-11T23:54:22.093Z,83.52
2022-12-11T23:55:22.657Z,83.52
2022-12-11T23:56:21.863Z,83.48
2022-12-11T23:57:22.179Z,83.43
2022-12-11T23:58:21.505Z,83.42
2022-12-11T23:59:22.153Z,83.42
